Time;durP1;ratioP1;P1;durP2;ratioP2;P2;SDS_P1;SDS_P2;PMS_P1;PMS_P2;Temp;Humidity;BMP_temperature;BMP_pressure;BME280_temperature;BME280_humidity;BME280_pressure;Samples;Min_cycle;Max_cycle;Signal;HPM_P1;HPM_P2
2021/08/10 00:00:23;;;;;;;3.20;1.73;;;21.20;76.40;;;;;;4207884;28;20604;-60
2021/08/10 00:02:45;;;;;;;2.03;1.75;;;21.20;76.40;;;;;;4206648;28;20048;-60
2021/08/10 00:05:08;;;;;;;2.50;2.30;;;21.20;76.50;;;;;;4207449;28;20090;-60
2021/08/10 00:07:30;;;;;;;1.90;1.77;;;21.20;76.50;;;;;;4207473;28;20064;-60
2021/08/10 00:09:52;;;;;;;2.65;2.10;;;21.20;77.50;;;;;;4207749;28;20637;-60
2021/08/10 00:12:14;;;;;;;2.40;2.03;;;21.20;76.70;;;;;;4209964;28;20044;-59
2021/08/10 00:14:38;;;;;;;2.85;2.03;;;21.10;76.70;;;;;;4211096;28;20063;-60
2021/08/10 00:17:00;;;;;;;5.85;2.20;;;21.10;76.70;;;;;;4210501;28;20040;-60
2021/08/10 00:19:22;;;;;;;3.22;2.03;;;21.10;76.70;;;;;;4210539;28;20044;-60
2021/08/10 00:21:44;;;;;;;2.78;1.73;;;21.20;76.80;;;;;;4210429;28;20105;-60
2021/08/10 00:24:07;;;;;;;2.13;1.80;;;21.10;76.70;;;;;;4193719;28;20044;-60
2021/08/10 00:26:29;;;;;;;3.28;1.85;;;21.10;76.80;;;;;;4193539;28;20064;-60
2021/08/10 00:28:51;;;;;;;2.40;2.20;;;21.10;76.80;;;;;;4193527;28;20044;-60
2021/08/10 00:31:15;;;;;;;4.00;2.30;;;21.10;76.80;;;;;;4198270;28;20051;-60
2021/08/10 00:33:37;;;;;;;4.50;2.13;;;21.10;76.90;;;;;;4194223;28;20079;-60
2021/08/10 00:35:59;;;;;;;2.28;2.08;;;21.10;77.00;;;;;;4193679;28;20569;-60
2021/08/10 00:38:21;;;;;;;3.20;2.10;;;21.10;77.00;;;;;;4193344;28;20051;-60
2021/08/10 00:40:44;;;;;;;2.22;2.00;;;21.10;77.00;;;;;;4192017;28;20768;-60
2021/08/10 00:43:29;;;;;;;2.42;1.98;;;21.10;77.00;;;;;;4204146;28;20498;-60
2021/08/10 00:45:52;;;;;;;2.28;2.08;;;21.10;76.90;;;;;;4208433;28;20152;-60
2021/08/10 00:48:19;;;;;;;2.75;1.90;;;21.10;77.00;;;;;;4208532;28;20071;-60
2021/08/10 00:50:43;;;;;;;2.08;1.90;;;21.10;77.00;;;;;;4208472;28;20087;-60
2021/08/10 00:53:06;;;;;;;2.72;2.00;;;21.10;77.20;;;;;;4208496;28;20054;-59
2021/08/10 00:55:28;;;;;;;2.17;2.08;;;21.10;77.10;;;;;;4208679;28;20127;-60
2021/08/10 00:57:50;;;;;;;4.43;2.42;;;21.10;78.10;;;;;;4208458;28;20109;-60
2021/08/10 01:00:13;;;;;;;3.78;2.47;;;21.00;77.30;;;;;;4209923;28;20066;-60
2021/08/10 01:02:35;;;;;;;2.95;1.85;;;21.00;77.40;;;;;;4207951;28;20043;-59
2021/08/10 01:05:00;;;;;;;5.03;2.33;;;21.10;77.40;;;;;;4207951;28;20135;-59
2021/08/10 01:07:32;;;;;;;3.25;2.30;;;21.00;77.40;;;;;;4208319;28;20048;-59
2021/08/10 01:10:02;;;;;;;2.85;2.10;;;21.00;77.40;;;;;;4208094;28;20066;-59
2021/08/10 01:12:28;;;;;;;2.65;1.95;;;21.00;77.40;;;;;;4203394;28;20101;-60
2021/08/10 01:15:00;;;;;;;3.10;2.47;;;21.00;77.50;;;;;;4207834;28;20066;-60
2021/08/10 01:17:28;;;;;;;3.78;2.10;;;21.00;77.40;;;;;;4207554;28;20056;-59
2021/08/10 01:20:22;;;;;;;2.17;1.98;;;21.00;77.40;;;;;;4208182;28;20071;-60
2021/08/10 01:22:48;;;;;;;2.58;2.35;;;21.00;77.30;;;;;;4207236;28;20055;-59
2021/08/10 01:25:22;;;;;;;3.00;2.45;;;21.00;77.50;;;;;;4207778;28;20056;-58
2021/08/10 01:27:58;;;;;;;1.80;1.70;;;21.00;77.50;;;;;;4207750;28;20093;-60
2021/08/10 01:30:24;;;;;;;2.38;2.05;;;21.00;77.60;;;;;;4207312;28;20051;-59
2021/08/10 01:32:51;;;;;;;3.10;2.85;;;21.00;77.60;;;;;;4207698;28;20067;-59
2021/08/10 01:35:16;;;;;;;2.20;2.08;;;21.00;77.70;;;;;;4207759;28;20048;-59
2021/08/10 01:37:40;;;;;;;2.47;2.30;;;20.90;77.80;;;;;;4207783;28;20114;-59
2021/08/10 01:40:08;;;;;;;2.70;2.50;;;21.00;78.00;;;;;;4207886;28;20060;-59
2021/08/10 01:42:39;;;;;;;2.80;2.53;;;21.00;78.00;;;;;;4207096;28;20452;-59
2021/08/10 01:45:02;;;;;;;4.65;2.50;;;21.00;78.00;;;;;;4208118;28;20486;-59
2021/08/10 01:47:29;;;;;;;2.33;2.13;;;20.90;78.10;;;;;;4190803;28;20045;-59
2021/08/10 01:49:54;;;;;;;2.60;2.40;;;20.90;78.20;;;;;;4191045;28;20045;-60
2021/08/10 01:52:20;;;;;;;2.92;2.65;;;20.90;78.20;;;;;;4205804;28;20486;-59
2021/08/10 01:54:49;;;;;;;3.40;2.38;;;20.90;78.20;;;;;;4207132;28;20593;-59
2021/08/10 01:57:11;;;;;;;2.80;2.60;;;20.90;78.20;;;;;;4207375;28;20199;-59
2021/08/10 01:59:39;;;;;;;3.20;2.65;;;20.90;78.20;;;;;;4207188;28;20060;-59
2021/08/10 02:02:02;;;;;;;3.15;2.80;;;20.90;78.30;;;;;;4207217;28;20051;-59
2021/08/10 02:04:25;;;;;;;3.17;2.90;;;21.00;78.40;;;;;;4207516;28;20056;-59
2021/08/10 02:06:52;;;;;;;2.90;2.58;;;20.90;78.30;;;;;;4207314;28;20058;-60
2021/08/10 02:09:20;;;;;;;3.38;2.50;;;20.90;78.30;;;;;;4207093;28;20568;-59
2021/08/10 02:11:43;;;;;;;2.97;2.67;;;20.90;78.30;;;;;;4207226;28;20087;-60
2021/08/10 02:14:09;;;;;;;3.85;2.97;;;20.90;78.40;;;;;;4207060;28;20165;-60
2021/08/10 02:16:32;;;;;;;3.88;2.53;;;20.90;78.40;;;;;;4206812;28;20414;-59
2021/08/10 02:18:55;;;;;;;2.90;2.70;;;20.90;78.40;;;;;;4206926;28;20452;-60
2021/08/10 02:21:33;;;;;;;4.68;2.67;;;20.90;78.40;;;;;;4206707;28;20509;-59
2021/08/10 02:24:05;;;;;;;3.53;2.50;;;20.90;79.30;;;;;;4206712;28;20072;-59
2021/08/10 02:26:29;;;;;;;3.17;2.42;;;20.90;78.50;;;;;;4207289;28;20052;-60
2021/08/10 02:28:54;;;;;;;3.97;3.05;;;20.90;78.60;;;;;;4206727;28;20122;-59
2021/08/10 02:31:19;;;;;;;4.57;2.45;;;20.90;78.70;;;;;;4206774;28;20052;-60
2021/08/10 02:33:42;;;;;;;2.78;2.53;;;20.90;78.70;;;;;;4206381;28;20048;-60
2021/08/10 02:36:09;;;;;;;5.28;2.55;;;20.90;78.70;;;;;;4206661;28;20826;-60
2021/08/10 02:38:33;;;;;;;6.15;2.78;;;20.90;78.70;;;;;;4208325;28;20043;-60
2021/08/10 02:40:58;;;;;;;3.97;2.78;;;20.90;78.70;;;;;;4206701;28;20052;-59
2021/08/10 02:43:27;;;;;;;4.40;2.78;;;20.90;78.70;;;;;;4206694;28;20051;-59
2021/08/10 02:45:50;;;;;;;4.90;2.72;;;20.90;78.70;;;;;;4197350;28;20776;-59
2021/08/10 02:48:14;;;;;;;3.97;2.70;;;20.90;78.70;;;;;;4206857;28;20495;-60
2021/08/10 02:50:37;;;;;;;3.45;2.60;;;20.90;78.70;;;;;;4206593;28;20048;-59
2021/08/10 02:52:59;;;;;;;2.88;2.45;;;20.80;78.70;;;;;;4206827;28;20051;-59
2021/08/10 02:55:31;;;;;;;2.92;2.72;;;20.80;79.60;;;;;;4206403;28;20056;-58
2021/08/10 02:58:01;;;;;;;3.13;2.92;;;20.80;78.70;;;;;;4206409;28;20080;-59
2021/08/10 03:00:26;;;;;;;3.63;2.22;;;20.80;78.70;;;;;;4207225;28;20098;-59
2021/08/10 03:02:53;;;;;;;4.47;2.58;;;20.80;78.80;;;;;;4206600;28;20475;-60
2021/08/10 03:05:21;;;;;;;4.57;3.00;;;20.80;79.10;;;;;;4206153;28;20044;-60
2021/08/10 03:07:50;;;;;;;3.28;2.97;;;20.80;78.80;;;;;;4206388;28;20051;-59
2021/08/10 03:10:14;;;;;;;2.80;2.60;;;20.80;78.80;;;;;;4207942;28;20498;-60
2021/08/10 03:12:40;;;;;;;3.17;2.55;;;20.90;79.00;;;;;;4206152;28;20036;-59
2021/08/10 03:15:04;;;;;;;5.07;3.28;;;20.80;78.80;;;;;;4205915;28;20130;-60
2021/08/10 03:17:33;;;;;;;5.80;2.80;;;20.80;78.80;;;;;;4208012;28;20044;-60
2021/08/10 03:19:57;;;;;;;2.28;2.08;;;20.80;78.80;;;;;;4206145;28;20054;-59
2021/08/10 03:22:20;;;;;;;4.38;2.55;;;20.80;78.90;;;;;;4207433;28;20048;-60
2021/08/10 03:24:44;;;;;;;2.85;2.53;;;20.80;78.80;;;;;;4206181;28;20048;-60
2021/08/10 03:27:08;;;;;;;2.55;2.38;;;20.80;78.80;;;;;;4206597;28;20044;-59
2021/08/10 03:29:35;;;;;;;2.97;2.42;;;20.80;78.80;;;;;;4205767;28;20044;-60
2021/08/10 03:31:59;;;;;;;4.10;2.60;;;20.80;78.80;;;;;;4201826;28;20071;-60
2021/08/10 03:34:23;;;;;;;7.10;2.92;;;20.80;78.80;;;;;;4207985;28;20152;-59
2021/08/10 03:36:48;;;;;;;2.80;2.70;;;20.80;78.80;;;;;;4206659;28;20063;-60
2021/08/10 03:39:11;;;;;;;4.70;2.72;;;20.80;78.70;;;;;;4206339;28;20052;-60
2021/08/10 03:41:33;;;;;;;2.80;2.60;;;20.80;78.70;;;;;;4207508;28;20051;-60
2021/08/10 03:43:56;;;;;;;4.45;2.90;;;20.80;78.70;;;;;;4206360;28;20044;-60
2021/08/10 03:46:18;;;;;;;3.85;3.13;;;20.80;78.70;;;;;;4209950;28;20074;-60
2021/08/10 03:48:44;;;;;;;2.78;2.53;;;20.80;78.70;;;;;;4209481;28;20577;-61
2021/08/10 03:51:10;;;;;;;6.28;2.80;;;20.80;78.70;;;;;;4208786;28;20048;-60
2021/08/10 03:53:34;;;;;;;2.72;2.50;;;20.80;78.70;;;;;;4192942;28;20044;-60
2021/08/10 03:55:56;;;;;;;2.95;2.08;;;20.80;78.80;;;;;;4192845;28;20056;-60
2021/08/10 03:58:28;;;;;;;2.75;2.50;;;20.80;78.80;;;;;;4192082;28;20052;-60
2021/08/10 04:00:54;;;;;;;2.92;2.67;;;20.80;78.80;;;;;;4203819;28;20059;-60
2021/08/10 04:03:18;;;;;;;5.20;2.78;;;20.70;78.80;;;;;;4209531;28;20517;-60
2021/08/10 04:05:49;;;;;;;3.03;2.72;;;20.70;78.90;;;;;;4209635;28;20500;-59
2021/08/10 04:08:14;;;;;;;4.50;3.13;;;20.70;78.90;;;;;;4210454;28;20051;-59
2021/08/10 04:10:38;;;;;;;3.97;2.70;;;20.70;78.90;;;;;;4208601;28;20147;-60
2021/08/10 04:13:01;;;;;;;2.60;2.42;;;20.80;79.10;;;;;;4209444;28;20048;-60
2021/08/10 04:15:25;;;;;;;2.75;2.53;;;20.70;79.00;;;;;;4208865;28;20071;-60
2021/08/10 04:17:50;;;;;;;3.50;2.85;;;20.70;79.10;;;;;;4209269;28;20048;-60
2021/08/10 04:20:12;;;;;;;5.10;3.28;;;20.70;79.00;;;;;;4210436;28;20094;-60
2021/08/10 04:22:39;;;;;;;6.00;2.95;;;20.70;79.10;;;;;;4210039;28;20048;-60
2021/08/10 04:25:05;;;;;;;4.68;3.33;;;20.70;79.10;;;;;;4208906;28;20696;-60
2021/08/10 04:27:27;;;;;;;4.70;3.53;;;20.70;79.10;;;;;;4209101;28;20075;-60
2021/08/10 04:29:54;;;;;;;5.57;3.00;;;20.70;79.10;;;;;;4208311;28;20058;-60
2021/08/10 04:32:18;;;;;;;3.03;2.70;;;20.70;79.10;;;;;;4208176;28;20048;-59
2021/08/10 04:34:40;;;;;;;4.28;2.83;;;20.70;79.20;;;;;;4204353;28;20052;-60
2021/08/10 04:37:03;;;;;;;3.72;3.05;;;20.70;79.20;;;;;;4210254;28;20553;-60
2021/08/10 04:39:28;;;;;;;4.57;2.60;;;20.70;79.30;;;;;;4208749;28;20048;-60
2021/08/10 04:41:52;;;;;;;4.80;2.72;;;20.70;79.30;;;;;;4208456;28;20040;-60
2021/08/10 04:44:14;;;;;;;3.72;2.42;;;20.70;79.40;;;;;;4210306;28;20097;-60
2021/08/10 04:46:37;;;;;;;2.72;2.42;;;20.70;79.50;;;;;;4191998;28;20052;-60
2021/08/10 04:49:04;;;;;;;2.60;2.40;;;20.70;79.60;;;;;;4191923;28;20044;-60
2021/08/10 04:51:26;;;;;;;5.10;3.10;;;20.70;79.60;;;;;;4202179;28;20047;-60
2021/08/10 04:53:49;;;;;;;4.88;3.05;;;20.70;79.50;;;;;;4210202;28;20516;-59
2021/08/10 04:56:12;;;;;;;5.25;2.97;;;20.70;79.60;;;;;;4208663;28;20055;-60
2021/08/10 04:58:34;;;;;;;4.18;3.13;;;20.70;79.70;;;;;;4209482;28;20048;-60
2021/08/10 05:00:56;;;;;;;3.45;2.88;;;20.70;79.60;;;;;;4208011;28;20109;-59
2021/08/10 05:03:19;;;;;;;4.70;2.63;;;20.70;79.80;;;;;;4209675;28;20044;-60
2021/08/10 05:05:41;;;;;;;4.28;2.95;;;20.70;79.70;;;;;;4209897;28;20048;-60
2021/08/10 05:08:05;;;;;;;4.15;3.35;;;20.70;79.80;;;;;;4209365;28;20101;-60
2021/08/10 05:10:28;;;;;;;3.03;2.53;;;20.70;79.80;;;;;;4208103;28;20139;-60
2021/08/10 05:12:53;;;;;;;4.80;3.20;;;20.70;79.90;;;;;;4208104;28;20067;-60
2021/08/10 05:15:18;;;;;;;4.18;2.83;;;20.70;80.00;;;;;;4208034;28;20052;-60
2021/08/10 05:17:41;;;;;;;3.65;2.83;;;20.70;80.00;;;;;;4209703;28;20054;-60
2021/08/10 05:20:05;;;;;;;7.13;3.75;;;20.70;80.00;;;;;;4207856;28;20335;-60
2021/08/10 05:22:29;;;;;;;4.18;2.65;;;20.70;80.10;;;;;;4207600;28;20048;-60
2021/08/10 05:24:53;;;;;;;6.85;2.70;;;20.70;80.10;;;;;;4207787;28;20063;-59
2021/08/10 05:27:16;;;;;;;3.08;2.78;;;20.70;80.10;;;;;;4207515;28;20063;-60
2021/08/10 05:29:41;;;;;;;4.45;2.85;;;20.70;80.10;;;;;;4207470;28;20044;-60
2021/08/10 05:32:04;;;;;;;3.35;3.05;;;20.70;80.20;;;;;;4209375;28;20482;-61
2021/08/10 05:34:26;;;;;;;4.90;3.03;;;20.70;80.20;;;;;;4192728;28;20521;-60
2021/08/10 05:36:49;;;;;;;3.88;2.75;;;20.70;80.30;;;;;;4191086;28;20052;-62
2021/08/10 05:39:11;;;;;;;3.35;2.90;;;20.70;80.50;;;;;;4193042;28;20056;-59
2021/08/10 05:41:33;;;;;;;3.10;2.67;;;20.70;80.70;;;;;;4207408;28;20056;-60
2021/08/10 05:43:56;;;;;;;4.63;3.15;;;20.80;80.50;;;;;;4207988;28;20059;-60
2021/08/10 05:46:19;;;;;;;4.63;3.15;;;20.80;80.30;;;;;;4192679;28;20410;-59
2021/08/10 05:48:42;;;;;;;3.60;3.30;;;20.80;80.20;;;;;;4206961;28;20055;-60
2021/08/10 05:51:05;;;;;;;3.35;3.03;;;20.80;80.20;;;;;;4206990;28;20052;-59
2021/08/10 05:53:31;;;;;;;3.13;2.80;;;20.80;80.20;;;;;;4207620;28;20505;-59
2021/08/10 05:55:53;;;;;;;5.78;3.30;;;20.80;80.30;;;;;;4207173;28;20049;-60
2021/08/10 05:58:15;;;;;;;5.30;3.25;;;20.70;80.20;;;;;;4190999;28;20114;-60
2021/08/10 06:00:38;;;;;;;5.90;3.20;;;20.70;80.20;;;;;;4203554;28;20048;-60
2021/08/10 06:03:07;;;;;;;5.72;3.17;;;20.70;80.10;;;;;;4207637;28;20071;-61
2021/08/10 06:05:29;;;;;;;4.93;2.97;;;20.70;80.10;;;;;;4209001;28;20518;-60
2021/08/10 06:07:51;;;;;;;5.45;3.15;;;20.70;80.20;;;;;;4207243;28;20044;-60
2021/08/10 06:10:13;;;;;;;4.93;3.30;;;20.70;80.20;;;;;;4190593;28;20505;-60
2021/08/10 06:12:39;;;;;;;3.08;2.88;;;20.70;80.20;;;;;;4190853;28;20106;-60
2021/08/10 06:15:02;;;;;;;6.50;3.03;;;20.80;80.40;;;;;;4205341;28;20418;-60
2021/08/10 06:17:25;;;;;;;3.13;2.63;;;20.70;80.30;;;;;;4207456;28;20838;-59
2021/08/10 06:19:48;;;;;;;4.28;3.25;;;20.70;80.30;;;;;;4207387;28;20055;-60
2021/08/10 06:22:12;;;;;;;3.20;2.67;;;20.70;80.30;;;;;;4206911;28;20052;-60
2021/08/10 06:24:34;;;;;;;4.78;2.92;;;20.70;80.40;;;;;;4206375;28;20061;-60
2021/08/10 06:26:57;;;;;;;4.00;2.50;;;20.70;80.40;;;;;;4206550;28;20048;-60
2021/08/10 06:29:19;;;;;;;3.50;3.20;;;20.70;80.50;;;;;;4194902;28;20048;-59
2021/08/10 06:31:41;;;;;;;4.03;2.92;;;20.70;80.50;;;;;;4206501;28;20051;-61
2021/08/10 06:34:04;;;;;;;3.15;2.85;;;20.70;80.80;;;;;;4206823;28;20047;-60
2021/08/10 06:36:27;;;;;;;4.82;3.10;;;20.80;81.30;;;;;;4194116;28;20066;-62
2021/08/10 06:38:50;;;;;;;3.95;3.10;;;20.90;81.20;;;;;;4206824;28;20461;-61
2021/08/10 06:41:14;;;;;;;4.47;3.60;;;20.90;80.90;;;;;;4206694;28;20048;-61
2021/08/10 06:43:52;;;;;;;4.65;4.05;;;20.90;80.80;;;;;;4192248;28;20145;-60
2021/08/10 06:46:18;;;;;;;3.75;3.00;;;20.90;80.70;;;;;;4198391;28;20864;-61
2021/08/10 06:48:40;;;;;;;3.63;3.10;;;20.90;80.70;;;;;;4202918;28;20052;-61
2021/08/10 06:51:04;;;;;;;4.53;3.33;;;20.90;80.70;;;;;;4206180;28;20139;-61
2021/08/10 06:53:28;;;;;;;3.15;2.92;;;20.90;80.70;;;;;;4193258;28;20494;-61
2021/08/10 06:55:51;;;;;;;3.70;3.40;;;20.90;81.50;;;;;;4198559;28;20043;-62
2021/08/10 06:58:14;;;;;;;4.95;3.63;;;20.80;80.60;;;;;;4204159;28;20048;-63
2021/08/10 07:00:39;;;;;;;3.90;3.53;;;20.80;80.60;;;;;;4201084;28;20099;-62
2021/08/10 07:03:02;;;;;;;4.15;3.55;;;20.80;80.80;;;;;;4196051;28;20044;-62
2021/08/10 07:05:26;;;;;;;5.30;3.45;;;20.80;80.80;;;;;;4201391;28;20048;-62
2021/08/10 07:07:48;;;;;;;3.88;3.58;;;20.80;80.90;;;;;;4200147;28;20056;-63
2021/08/10 07:10:12;;;;;;;4.93;3.47;;;20.80;81.00;;;;;;4192122;28;20840;-62
2021/08/10 07:12:35;;;;;;;3.13;2.88;;;20.80;81.30;;;;;;4206464;28;20052;-62
2021/08/10 07:14:57;;;;;;;3.30;3.08;;;20.80;81.30;;;;;;4207567;28;20036;-62
2021/08/10 07:17:19;;;;;;;3.35;2.78;;;20.90;81.20;;;;;;4205959;28;20071;-62
2021/08/10 07:19:42;;;;;;;3.35;3.10;;;20.90;81.00;;;;;;4206177;28;20047;-63
2021/08/10 07:22:11;;;;;;;2.97;2.70;;;20.90;80.80;;;;;;4201943;28;20040;-63
2021/08/10 07:24:54;;;;;;;4.15;2.53;;;20.90;80.60;;;;;;4189708;28;20457;-61
2021/08/10 07:27:18;;;;;;;3.15;2.92;;;20.90;80.60;;;;;;4205446;28;20045;-62
2021/08/10 07:29:40;;;;;;;4.45;2.58;;;20.90;80.70;;;;;;4206251;28;20051;-61
2021/08/10 07:32:02;;;;;;;2.50;2.40;;;20.90;80.80;;;;;;4206125;28;20056;-63
2021/08/10 07:34:25;;;;;;;2.33;2.05;;;21.00;80.70;;;;;;4206050;28;20135;-63
2021/08/10 07:37:06;;;;;;;;;;;21.00;80.50;;;;;;4206614;28;20048;-64
2021/08/10 07:39:29;;;;;;;2.35;2.03;;;20.90;80.20;;;;;;4206509;28;19927;-62
2021/08/10 07:41:51;;;;;;;2.30;2.10;;;20.90;80.20;;;;;;4206054;28;20047;-63
2021/08/10 07:44:15;;;;;;;2.40;2.20;;;20.90;81.10;;;;;;4207508;28;20056;-63
2021/08/10 07:46:41;;;;;;;2.30;2.10;;;20.90;80.10;;;;;;4205456;28;20052;-62
2021/08/10 07:49:09;;;;;;;2.00;1.90;;;20.90;80.20;;;;;;4202906;28;20097;-61
2021/08/10 07:51:31;;;;;;;2.30;1.95;;;20.90;80.50;;;;;;4205936;28;20512;-62
2021/08/10 07:53:54;;;;;;;3.47;2.17;;;20.90;80.20;;;;;;4190917;28;20071;-62
2021/08/10 07:56:17;;;;;;;2.97;2.10;;;20.90;80.20;;;;;;4205859;28;20501;-62
2021/08/10 07:58:42;;;;;;;2.28;2.08;;;20.90;80.40;;;;;;4205819;28;20044;-62
2021/08/10 08:01:06;;;;;;;3.00;2.30;;;20.90;80.40;;;;;;4189648;28;20049;-62
2021/08/10 08:03:29;;;;;;;1.92;1.83;;;20.90;80.50;;;;;;4203798;28;20052;-61
2021/08/10 08:05:51;;;;;;;2.63;2.25;;;20.90;80.60;;;;;;4197830;28;20044;-61
2021/08/10 08:08:14;;;;;;;1.83;1.73;;;20.90;80.60;;;;;;4205886;28;20055;-61
2021/08/10 08:10:37;;;;;;;1.70;1.60;;;20.90;80.50;;;;;;4206109;28;20052;-61
2021/08/10 08:13:16;;;;;;;1.90;1.70;;;20.90;80.40;;;;;;4205443;28;20497;-63
2021/08/10 08:15:38;;;;;;;3.40;2.15;;;20.90;80.30;;;;;;4205322;28;20081;-61
2021/08/10 08:18:03;;;;;;;1.73;1.60;;;20.90;80.20;;;;;;4205417;28;20162;-61
2021/08/10 08:20:25;;;;;;;3.22;2.00;;;20.90;80.20;;;;;;4205521;28;20044;-61
2021/08/10 08:22:48;;;;;;;3.97;1.80;;;20.90;80.10;;;;;;4206055;28;20776;-61
2021/08/10 08:25:11;;;;;;;2.42;1.98;;;20.90;80.10;;;;;;4205543;28;20487;-62
2021/08/10 08:27:33;;;;;;;1.33;1.25;;;20.90;80.00;;;;;;4201713;28;20044;-62
2021/08/10 08:29:55;;;;;;;1.70;1.60;;;20.90;80.00;;;;;;4190784;28;20051;-61
2021/08/10 08:32:17;;;;;;;2.45;1.30;;;20.90;80.20;;;;;;4198708;28;20596;-61
2021/08/10 08:34:42;;;;;;;1.17;1.08;;;21.00;80.40;;;;;;4206058;28;20041;-61
2021/08/10 08:37:05;;;;;;;1.30;1.23;;;21.00;80.50;;;;;;4206861;28;20481;-60
2021/08/10 08:39:28;;;;;;;1.30;1.20;;;21.00;80.30;;;;;;4208867;28;20048;-59
2021/08/10 08:41:51;;;;;;;1.17;1.17;;;21.00;80.20;;;;;;4208656;28;20056;-59
2021/08/10 08:44:16;;;;;;;1.02;1.02;;;21.10;80.10;;;;;;4208234;28;20618;-61
2021/08/10 08:46:39;;;;;;;1.38;1.00;;;21.10;80.00;;;;;;4208352;28;20048;-60
2021/08/10 08:49:03;;;;;;;2.30;1.40;;;21.20;80.00;;;;;;4208141;28;20044;-59
2021/08/10 08:51:29;;;;;;;1.48;1.38;;;21.20;79.70;;;;;;4208812;28;20048;-60
2021/08/10 08:53:54;;;;;;;3.10;1.70;;;21.20;79.40;;;;;;4208031;28;20078;-60
2021/08/10 08:56:22;;;;;;;1.75;1.65;;;21.30;79.40;;;;;;4207973;28;20044;-62
2021/08/10 08:58:46;;;;;;;2.10;1.90;;;21.30;79.20;;;;;;4205804;28;20060;-60
2021/08/10 09:01:12;;;;;;;2.25;2.15;;;21.40;80.00;;;;;;4193441;28;20044;-59
2021/08/10 09:03:35;;;;;;;2.35;2.25;;;21.40;79.10;;;;;;4193497;28;20072;-61
2021/08/10 09:05:57;;;;;;;2.70;2.47;;;21.40;79.10;;;;;;4191650;28;20056;-61
2021/08/10 09:08:29;;;;;;;2.90;2.70;;;21.50;79.20;;;;;;4193079;28;20048;-61
2021/08/10 09:10:54;;;;;;;3.38;3.08;;;21.50;79.20;;;;;;4191355;28;20040;-63
2021/08/10 09:13:16;;;;;;;3.65;3.35;;;21.50;78.90;;;;;;4194297;28;20131;-60
2021/08/10 09:15:44;;;;;;;5.60;3.58;;;21.50;78.90;;;;;;4207962;28;20047;-60
2021/08/10 09:18:12;;;;;;;3.55;3.25;;;21.60;79.00;;;;;;4191319;28;20056;-62
2021/08/10 09:21:10;;;;;;;5.55;3.45;;;21.60;79.10;;;;;;4191135;28;20090;-61
2021/08/10 09:23:46;;;;;;;3.92;3.60;;;21.60;79.20;;;;;;4191402;28;20060;-63
2021/08/10 09:26:10;;;;;;;3.58;3.13;;;21.60;78.90;;;;;;4191583;28;20465;-62
2021/08/10 09:28:33;;;;;;;6.38;3.90;;;21.60;78.80;;;;;;4207676;28;20048;-62
2021/08/10 09:30:56;;;;;;;5.25;4.30;;;21.70;79.10;;;;;;4191305;28;20056;-61
2021/08/10 09:33:18;;;;;;;4.38;3.10;;;21.60;79.00;;;;;;4192623;28;20058;-61
2021/08/10 09:35:45;;;;;;;4.40;3.47;;;21.60;79.00;;;;;;4197249;28;20539;-60
2021/08/10 09:38:16;;;;;;;4.47;3.17;;;21.70;78.90;;;;;;4199883;28;20059;-60
2021/08/10 09:40:41;;;;;;;4.53;3.42;;;21.70;79.00;;;;;;4207467;28;20512;-59
2021/08/10 09:43:26;;;;;;;4.03;3.00;;;21.70;78.80;;;;;;4207201;28;20048;-59
2021/08/10 09:46:11;;;;;;;4.40;3.40;;;21.70;78.70;;;;;;4208302;28;22014;-60
2021/08/10 09:48:33;;;;;;;3.78;3.00;;;21.70;78.70;;;;;;4208839;28;20055;-60
2021/08/10 09:51:06;;;;;;;3.95;3.17;;;21.80;78.70;;;;;;4208871;28;20493;-62
2021/08/10 09:53:28;;;;;;;5.18;3.05;;;21.80;78.80;;;;;;4207068;28;20048;-60
2021/08/10 09:55:55;;;;;;;3.33;2.95;;;21.80;78.60;;;;;;4209113;28;20488;-58
2021/08/10 09:58:17;;;;;;;3.55;2.67;;;21.90;78.80;;;;;;4191267;28;20387;-60
2021/08/10 10:00:40;;;;;;;4.18;2.47;;;21.90;78.50;;;;;;4209237;28;20480;-63
2021/08/10 10:03:16;;;;;;;3.17;2.58;;;22.00;78.50;;;;;;4206912;28;20048;-61
2021/08/10 10:05:43;;;;;;;3.92;2.13;;;22.00;77.90;;;;;;4193679;28;20040;-59
2021/08/10 10:08:16;;;;;;;2.63;2.42;;;22.00;77.40;;;;;;4207218;28;20056;-59
2021/08/10 10:10:38;;;;;;;5.78;3.28;;;22.10;77.30;;;;;;4206843;28;20484;-58
2021/08/10 10:13:02;;;;;;;3.97;3.60;;;22.10;76.90;;;;;;4206747;28;20043;-63
2021/08/10 10:15:24;;;;;;;4.20;2.97;;;22.10;76.70;;;;;;4208775;28;20126;-59
2021/08/10 10:17:46;;;;;;;4.78;4.38;;;22.10;76.60;;;;;;4206493;28;20867;-60
2021/08/10 10:20:10;;;;;;;2.47;2.28;;;22.10;76.30;;;;;;4207931;28;20484;-64
2021/08/10 10:22:33;;;;;;;3.33;2.05;;;22.10;76.10;;;;;;4199264;28;20123;-59
2021/08/10 10:24:57;;;;;;;2.65;1.77;;;22.00;75.90;;;;;;4208394;28;20052;-62
2021/08/10 10:27:20;;;;;;;2.58;2.10;;;22.10;75.90;;;;;;4208447;28;20047;-60
2021/08/10 10:29:47;;;;;;;2.65;2.13;;;22.10;76.10;;;;;;4208688;28;20409;-64
2021/08/10 10:32:09;;;;;;;3.92;2.10;;;22.10;76.00;;;;;;4208752;28;20102;-61
2021/08/10 10:34:32;;;;;;;2.78;2.28;;;22.10;76.00;;;;;;4208407;28;20059;-61
2021/08/10 10:36:56;;;;;;;4.30;2.35;;;22.10;75.80;;;;;;4208322;28;20155;-60
2021/08/10 10:39:24;;;;;;;2.50;2.30;;;22.10;75.80;;;;;;4208074;28;20052;-59
2021/08/10 10:41:47;;;;;;;2.67;2.00;;;22.20;75.80;;;;;;4208161;28;20094;-60
2021/08/10 10:44:10;;;;;;;2.95;2.38;;;22.20;75.60;;;;;;4204457;28;20052;-61
2021/08/10 10:46:35;;;;;;;2.53;2.20;;;22.10;75.50;;;;;;4207347;28;20053;-62
2021/08/10 10:48:58;;;;;;;3.20;2.28;;;22.20;75.60;;;;;;4208273;28;20062;-61
2021/08/10 10:51:25;;;;;;;2.53;2.00;;;22.20;75.60;;;;;;4205834;28;20060;-60
2021/08/10 10:53:48;;;;;;;4.00;2.78;;;22.20;75.40;;;;;;4199936;28;20056;-60
2021/08/10 10:56:32;;;;;;;3.05;2.38;;;22.20;75.80;;;;;;4207192;28;20141;-61
2021/08/10 10:58:55;;;;;;;3.40;2.30;;;22.20;75.60;;;;;;4208074;28;20055;-61
2021/08/10 11:01:21;;;;;;;5.20;2.15;;;22.20;75.70;;;;;;4207787;28;20048;-61
2021/08/10 11:04:09;;;;;;;5.80;2.70;;;22.20;75.60;;;;;;4207302;28;20434;-59
2021/08/10 11:06:33;;;;;;;4.80;2.88;;;22.20;75.40;;;;;;4207852;28;20042;-61
2021/08/10 11:08:55;;;;;;;2.83;2.30;;;22.30;75.40;;;;;;4208156;28;20477;-60
2021/08/10 11:11:45;;;;;;;2.97;2.28;;;22.30;75.40;;;;;;4208281;28;20135;-61
2021/08/10 11:14:45;;;;;;;3.40;2.70;;;22.30;75.30;;;;;;4207899;28;20109;-61
2021/08/10 11:17:14;;;;;;;2.92;2.67;;;22.30;75.10;;;;;;4207684;28;20051;-61
2021/08/10 11:19:38;;;;;;;3.58;2.50;;;22.30;75.20;;;;;;4201213;28;20052;-61
2021/08/10 11:22:22;;;;;;;2.20;2.10;;;22.40;75.50;;;;;;4208331;28;20055;-61
2021/08/10 11:24:46;;;;;;;3.63;2.50;;;22.40;75.20;;;;;;4207953;28;20044;-61
2021/08/10 11:27:33;;;;;;;3.53;2.40;;;22.40;75.30;;;;;;4190971;28;20053;-61
2021/08/10 11:29:56;;;;;;;3.17;2.45;;;22.50;75.20;;;;;;4191364;28;20040;-61
2021/08/10 11:32:43;;;;;;;3.42;2.78;;;22.50;75.00;;;;;;4191131;28;20055;-61
2021/08/10 11:35:28;;;;;;;3.67;2.63;;;22.60;74.50;;;;;;4191325;28;20481;-61
2021/08/10 11:38:12;;;;;;;2.35;2.15;;;22.60;74.20;;;;;;4207560;28;20494;-61
2021/08/10 11:40:49;;;;;;;2.47;2.35;;;22.60;74.00;;;;;;4191218;28;20098;-61
2021/08/10 11:43:13;;;;;;;2.95;2.60;;;22.60;73.80;;;;;;4190966;28;20139;-61
2021/08/10 11:45:37;;;;;;;2.97;2.70;;;22.70;73.60;;;;;;4197929;28;20151;-61
2021/08/10 11:48:01;;;;;;;4.20;2.60;;;22.70;73.50;;;;;;4208175;28;20052;-61
2021/08/10 11:50:28;;;;;;;2.42;2.20;;;22.70;73.50;;;;;;4207855;28;20375;-61
2021/08/10 11:52:51;;;;;;;2.83;2.17;;;22.70;73.40;;;;;;4207610;28;20036;-61
2021/08/10 11:55:15;;;;;;;2.25;2.05;;;22.70;73.50;;;;;;4207795;28;20143;-61
2021/08/10 11:57:57;;;;;;;3.05;2.47;;;22.80;73.50;;;;;;4207250;28;20052;-61
2021/08/10 12:00:20;;;;;;;2.60;2.40;;;22.80;72.90;;;;;;4207973;28;20048;-61
2021/08/10 12:02:44;;;;;;;3.20;2.55;;;22.80;72.70;;;;;;4207966;28;20493;-61
2021/08/10 12:05:08;;;;;;;2.83;1.90;;;22.80;72.10;;;;;;4207873;28;20059;-61
2021/08/10 12:07:31;;;;;;;3.45;2.50;;;22.80;72.40;;;;;;4210375;28;20102;-61
2021/08/10 12:09:53;;;;;;;3.33;2.20;;;22.80;72.70;;;;;;4210883;28;20068;-61
2021/08/10 12:12:15;;;;;;;2.63;2.42;;;22.90;73.50;;;;;;4210944;28;20440;-60
2021/08/10 12:14:42;;;;;;;2.65;2.22;;;22.90;72.90;;;;;;4210658;28;20048;-61
2021/08/10 12:17:06;;;;;;;2.17;2.05;;;22.90;73.00;;;;;;4210628;28;20093;-61
2021/08/10 12:19:36;;;;;;;2.65;2.30;;;22.90;72.80;;;;;;4210728;28;20528;-61
2021/08/10 12:21:58;;;;;;;3.55;2.35;;;22.80;72.50;;;;;;4210779;28;20052;-61
2021/08/10 12:24:28;;;;;;;3.60;2.20;;;22.90;72.60;;;;;;4210623;28;20505;-60
2021/08/10 12:26:52;;;;;;;3.33;2.22;;;22.80;72.60;;;;;;4210491;28;20449;-61
2021/08/10 12:29:14;;;;;;;4.63;2.45;;;22.80;72.80;;;;;;4210773;28;20055;-61
2021/08/10 12:31:45;;;;;;;2.30;2.10;;;22.80;73.10;;;;;;4210382;28;20068;-61
2021/08/10 12:34:07;;;;;;;4.65;2.70;;;22.80;72.80;;;;;;4210120;28;20059;-61
2021/08/10 12:36:31;;;;;;;3.05;1.98;;;22.90;72.90;;;;;;4208278;28;20056;-61
2021/08/10 12:38:53;;;;;;;3.75;2.40;;;22.90;72.70;;;;;;4210475;28;20118;-61